sensor_id;sensor_type;location;lat;lon;timestamp;pressure;altitude;pressure_sealevel;temperature
71807;BMP280;59655;42.590;23.364;2022-07-29T00:00:19;91805.72;;;18.92
71807;BMP280;59655;42.590;23.364;2022-07-29T00:02:44;91804.91;;;18.89
71807;BMP280;59655;42.590;23.364;2022-07-29T00:05:09;91807.25;;;18.95
71807;BMP280;59655;42.590;23.364;2022-07-29T00:07:38;91805.50;;;18.88
71807;BMP280;59655;42.590;23.364;2022-07-29T00:10:04;91806.69;;;18.97
71807;BMP280;59655;42.590;23.364;2022-07-29T00:12:29;91815.91;;;18.94
71807;BMP280;59655;42.590;23.364;2022-07-29T00:14:55;91814.88;;;18.87
71807;BMP280;59655;42.590;23.364;2022-07-29T00:17:21;91816.13;;;18.86
71807;BMP280;59655;42.590;23.364;2022-07-29T00:19:47;91814.28;;;19.00
71807;BMP280;59655;42.590;23.364;2022-07-29T00:22:12;91820.59;;;19.05
71807;BMP280;59655;42.590;23.364;2022-07-29T00:24:38;91824.69;;;19.06
71807;BMP280;59655;42.590;23.364;2022-07-29T00:27:03;91820.94;;;18.99
71807;BMP280;59655;42.590;23.364;2022-07-29T00:29:28;91820.25;;;18.99
71807;BMP280;59655;42.590;23.364;2022-07-29T00:31:54;91818.38;;;19.01
71807;BMP280;59655;42.590;23.364;2022-07-29T00:34:19;91815.09;;;19.15
71807;BMP280;59655;42.590;23.364;2022-07-29T00:37:03;91817.34;;;19.06
71807;BMP280;59655;42.590;23.364;2022-07-29T00:39:29;91809.72;;;19.03
71807;BMP280;59655;42.590;23.364;2022-07-29T00:41:54;91819.69;;;19.12
71807;BMP280;59655;42.590;23.364;2022-07-29T00:44:20;91815.78;;;19.15
71807;BMP280;59655;42.590;23.364;2022-07-29T00:46:45;91812.19;;;18.99
71807;BMP280;59655;42.590;23.364;2022-07-29T00:49:10;91816.59;;;19.06
71807;BMP280;59655;42.590;23.364;2022-07-29T00:51:37;91822.00;;;19.06
71807;BMP280;59655;42.590;23.364;2022-07-29T00:54:03;91813.69;;;19.02
71807;BMP280;59655;42.590;23.364;2022-07-29T00:56:32;91821.19;;;19.03
71807;BMP280;59655;42.590;23.364;2022-07-29T00:58:59;91818.13;;;19.09
71807;BMP280;59655;42.590;23.364;2022-07-29T01:01:25;91819.06;;;19.02
71807;BMP280;59655;42.590;23.364;2022-07-29T01:03:50;91811.59;;;19.00
71807;BMP280;59655;42.590;23.364;2022-07-29T01:06:16;91813.34;;;19.07
71807;BMP280;59655;42.590;23.364;2022-07-29T01:08:43;91802.72;;;18.98
71807;BMP280;59655;42.590;23.364;2022-07-29T01:11:09;91810.53;;;19.05
71807;BMP280;59655;42.590;23.364;2022-07-29T01:13:35;91805.63;;;19.02
71807;BMP280;59655;42.590;23.364;2022-07-29T01:16:20;91797.56;;;19.02
71807;BMP280;59655;42.590;23.364;2022-07-29T01:18:47;91811.00;;;19.02
71807;BMP280;59655;42.590;23.364;2022-07-29T01:22:09;91809.38;;;18.97
71807;BMP280;59655;42.590;23.364;2022-07-29T01:24:54;91809.22;;;18.83
71807;BMP280;59655;42.590;23.364;2022-07-29T01:29:56;91807.50;;;18.99
71807;BMP280;59655;42.590;23.364;2022-07-29T01:32:26;91803.41;;;18.98
71807;BMP280;59655;42.590;23.364;2022-07-29T01:35:03;91802.47;;;18.94
71807;BMP280;59655;42.590;23.364;2022-07-29T01:38:00;91802.34;;;18.92
71807;BMP280;59655;42.590;23.364;2022-07-29T01:41:09;91805.50;;;18.88
71807;BMP280;59655;42.590;23.364;2022-07-29T01:43:18;91811.34;;;18.84
71807;BMP280;59655;42.590;23.364;2022-07-29T01:45:48;91794.41;;;18.94
71807;BMP280;59655;42.590;23.364;2022-07-29T01:49:28;91792.75;;;18.88
71807;BMP280;59655;42.590;23.364;2022-07-29T01:51:55;91794.16;;;18.89
71807;BMP280;59655;42.590;23.364;2022-07-29T01:54:34;91799.66;;;18.92
71807;BMP280;59655;42.590;23.364;2022-07-29T01:57:00;91792.75;;;18.88
71807;BMP280;59655;42.590;23.364;2022-07-29T01:59:26;91789.94;;;18.86
71807;BMP280;59655;42.590;23.364;2022-07-29T02:01:54;91794.38;;;18.70
71807;BMP280;59655;42.590;23.364;2022-07-29T02:04:21;91791.34;;;18.64
71807;BMP280;59655;42.590;23.364;2022-07-29T02:06:49;91790.03;;;18.77
71807;BMP280;59655;42.590;23.364;2022-07-29T02:09:15;91789.34;;;18.76
71807;BMP280;59655;42.590;23.364;2022-07-29T02:11:48;91779.41;;;18.79
71807;BMP280;59655;42.590;23.364;2022-07-29T02:14:16;91781.63;;;18.82
71807;BMP280;59655;42.590;23.364;2022-07-29T02:16:43;91788.22;;;18.79
71807;BMP280;59655;42.590;23.364;2022-07-29T02:19:09;91785.72;;;18.72
71807;BMP280;59655;42.590;23.364;2022-07-29T02:21:36;91786.56;;;18.74
71807;BMP280;59655;42.590;23.364;2022-07-29T02:24:02;91788.53;;;18.74
71807;BMP280;59655;42.590;23.364;2022-07-29T02:26:30;91791.56;;;18.68
71807;BMP280;59655;42.590;23.364;2022-07-29T02:28:57;91788.19;;;18.68
71807;BMP280;59655;42.590;23.364;2022-07-29T02:31:32;91778.81;;;18.69
71807;BMP280;59655;42.590;23.364;2022-07-29T02:33:58;91779.53;;;18.69
71807;BMP280;59655;42.590;23.364;2022-07-29T02:36:25;91777.56;;;18.70
71807;BMP280;59655;42.590;23.364;2022-07-29T02:38:52;91774.88;;;18.70
71807;BMP280;59655;42.590;23.364;2022-07-29T02:41:28;91772.66;;;18.66
71807;BMP280;59655;42.590;23.364;2022-07-29T02:43:57;91772.66;;;18.66
71807;BMP280;59655;42.590;23.364;2022-07-29T02:46:28;91768.41;;;18.63
71807;BMP280;59655;42.590;23.364;2022-07-29T02:51:36;91764.59;;;18.66
71807;BMP280;59655;42.590;23.364;2022-07-29T02:54:06;91758.34;;;18.63
71807;BMP280;59655;42.590;23.364;2022-07-29T02:56:33;91749.81;;;18.67
71807;BMP280;59655;42.590;23.364;2022-07-29T02:59:04;91752.63;;;18.69
71807;BMP280;59655;42.590;23.364;2022-07-29T03:01:32;91751.38;;;18.70
71807;BMP280;59655;42.590;23.364;2022-07-29T03:04:00;91754.75;;;18.71
71807;BMP280;59655;42.590;23.364;2022-07-29T03:06:28;91754.06;;;18.70
71807;BMP280;59655;42.590;23.364;2022-07-29T03:08:54;91743.31;;;18.70
71807;BMP280;59655;42.590;23.364;2022-07-29T03:11:20;91752.16;;;18.73
71807;BMP280;59655;42.590;23.364;2022-07-29T03:13:46;91746.56;;;18.69
71807;BMP280;59655;42.590;23.364;2022-07-29T03:16:12;91740.72;;;18.72
71807;BMP280;59655;42.590;23.364;2022-07-29T03:18:38;91748.22;;;18.74
71807;BMP280;59655;42.590;23.364;2022-07-29T03:21:04;91748.91;;;18.74
71807;BMP280;59655;42.590;23.364;2022-07-29T03:23:30;91745.53;;;18.74
71807;BMP280;59655;42.590;23.364;2022-07-29T03:25:55;91737.47;;;18.74
71807;BMP280;59655;42.590;23.364;2022-07-29T03:28:21;91742.84;;;18.74
71807;BMP280;59655;42.590;23.364;2022-07-29T03:30:48;91748.69;;;18.70
71807;BMP280;59655;42.590;23.364;2022-07-29T03:33:13;91749.81;;;18.67
71807;BMP280;59655;42.590;23.364;2022-07-29T03:35:39;91751.00;;;18.64
71807;BMP280;59655;42.590;23.364;2022-07-29T03:38:04;91749.50;;;18.61
71807;BMP280;59655;42.590;23.364;2022-07-29T03:40:40;91745.41;;;18.60
71807;BMP280;59655;42.590;23.364;2022-07-29T03:43:08;91758.69;;;18.58
71807;BMP280;59655;42.590;23.364;2022-07-29T03:45:35;91763.38;;;18.57
71807;BMP280;59655;42.590;23.364;2022-07-29T03:48:03;91757.19;;;18.55
71807;BMP280;59655;42.590;23.364;2022-07-29T03:50:31;91758.00;;;18.57
71807;BMP280;59655;42.590;23.364;2022-07-29T03:52:57;91757.31;;;18.57
71807;BMP280;59655;42.590;23.364;2022-07-29T03:55:23;91760.81;;;18.59
71807;BMP280;59655;42.590;23.364;2022-07-29T03:57:49;91766.19;;;18.59
71807;BMP280;59655;42.590;23.364;2022-07-29T04:00:15;91768.88;;;18.59
71807;BMP280;59655;42.590;23.364;2022-07-29T04:02:41;91768.88;;;18.59
71807;BMP280;59655;42.590;23.364;2022-07-29T04:05:13;91764.06;;;18.58
71807;BMP280;59655;42.590;23.364;2022-07-29T04:07:43;91766.75;;;18.58
71807;BMP280;59655;42.590;23.364;2022-07-29T04:10:09;91760.22;;;18.49
71807;BMP280;59655;42.590;23.364;2022-07-29T04:12:34;91767.59;;;18.49
71807;BMP280;59655;42.590;23.364;2022-07-29T04:15:00;91767.25;;;18.54
71807;BMP280;59655;42.590;23.364;2022-07-29T04:17:26;91769.44;;;18.58
71807;BMP280;59655;42.590;23.364;2022-07-29T04:19:51;91764.31;;;18.62
71807;BMP280;59655;42.590;23.364;2022-07-29T04:22:17;91762.94;;;18.61
71807;BMP280;59655;42.590;23.364;2022-07-29T04:24:42;91764.22;;;18.60
71807;BMP280;59655;42.590;23.364;2022-07-29T04:27:08;91767.84;;;18.64
71807;BMP280;59655;42.590;23.364;2022-07-29T04:29:33;91766.09;;;18.69
71807;BMP280;59655;42.590;23.364;2022-07-29T04:31:58;91770.19;;;18.70
71807;BMP280;59655;42.590;23.364;2022-07-29T04:34:24;91766.81;;;18.70
71807;BMP280;59655;42.590;23.364;2022-07-29T04:36:49;91764.34;;;18.74
71807;BMP280;59655;42.590;23.364;2022-07-29T04:39:14;91775.22;;;18.76
71807;BMP280;59655;42.590;23.364;2022-07-29T04:41:40;91769.25;;;18.77
71807;BMP280;59655;42.590;23.364;2022-07-29T04:44:05;91764.72;;;18.80
71807;BMP280;59655;42.590;23.364;2022-07-29T04:46:31;91767.63;;;18.84
71807;BMP280;59655;42.590;23.364;2022-07-29T04:48:56;91768.19;;;18.82
71807;BMP280;59655;42.590;23.364;2022-07-29T04:51:22;91775.09;;;18.85
71807;BMP280;59655;42.590;23.364;2022-07-29T04:53:47;91768.56;;;18.88
71807;BMP280;59655;42.590;23.364;2022-07-29T04:56:13;91774.75;;;18.91
71807;BMP280;59655;42.590;23.364;2022-07-29T04:58:38;91781.75;;;18.96
71807;BMP280;59655;42.590;23.364;2022-07-29T05:01:03;91784.44;;;18.96
71807;BMP280;59655;42.590;23.364;2022-07-29T05:03:29;91778.81;;;19.04
71807;BMP280;59655;42.590;23.364;2022-07-29T05:05:55;91780.47;;;19.09
71807;BMP280;59655;42.590;23.364;2022-07-29T05:08:20;91782.59;;;19.10
71807;BMP280;59655;42.590;23.364;2022-07-29T05:10:45;91786.69;;;19.11
71807;BMP280;59655;42.590;23.364;2022-07-29T05:13:11;91794.84;;;19.13
71807;BMP280;59655;42.590;23.364;2022-07-29T05:15:37;91789.59;;;19.16
71807;BMP280;59655;42.590;23.364;2022-07-29T05:18:03;91791.22;;;19.21
71807;BMP280;59655;42.590;23.364;2022-07-29T05:20:29;91790.06;;;19.24
71807;BMP280;59655;42.590;23.364;2022-07-29T05:22:58;91801.06;;;19.28
71807;BMP280;59655;42.590;23.364;2022-07-29T05:25:25;91801.75;;;19.28
71807;BMP280;59655;42.590;23.364;2022-07-29T05:27:51;91799.50;;;19.36
71807;BMP280;59655;42.590;23.364;2022-07-29T05:30:17;91797.19;;;19.43
71807;BMP280;59655;42.590;23.364;2022-07-29T05:32:42;91805.97;;;19.43
71807;BMP280;59655;42.590;23.364;2022-07-29T05:35:08;91796.13;;;19.48
71807;BMP280;59655;42.590;23.364;2022-07-29T05:37:33;91806.28;;;19.49
71807;BMP280;59655;42.590;23.364;2022-07-29T05:39:59;91795.06;;;19.53
71807;BMP280;59655;42.590;23.364;2022-07-29T05:42:24;91803.25;;;19.55
71807;BMP280;59655;42.590;23.364;2022-07-29T05:44:51;91800.06;;;19.58
71807;BMP280;59655;42.590;23.364;2022-07-29T05:47:16;91805.78;;;19.65
71807;BMP280;59655;42.590;23.364;2022-07-29T05:49:41;91808.13;;;19.70
71807;BMP280;59655;42.590;23.364;2022-07-29T05:52:07;91806.94;;;19.73
71807;BMP280;59655;42.590;23.364;2022-07-29T05:54:32;91816.16;;;19.82
71807;BMP280;59655;42.590;23.364;2022-07-29T05:56:57;91811.13;;;19.88
71807;BMP280;59655;42.590;23.364;2022-07-29T05:59:23;91813.00;;;19.86
71807;BMP280;59655;42.590;23.364;2022-07-29T06:01:48;91810.31;;;19.86
71807;BMP280;59655;42.590;23.364;2022-07-29T06:04:13;91812.75;;;19.93
71807;BMP280;59655;42.590;23.364;2022-07-29T06:06:39;91811.34;;;19.92
71807;BMP280;59655;42.590;23.364;2022-07-29T06:09:04;91814.03;;;19.92
71807;BMP280;59655;42.590;23.364;2022-07-29T06:11:30;91812.16;;;19.95
71807;BMP280;59655;42.590;23.364;2022-07-29T06:13:55;91821.63;;;19.96
71807;BMP280;59655;42.590;23.364;2022-07-29T06:16:20;91817.06;;;19.98
71807;BMP280;59655;42.590;23.364;2022-07-29T06:18:46;91822.06;;;20.04
71807;BMP280;59655;42.590;23.364;2022-07-29T06:21:11;91816.91;;;20.08
71807;BMP280;59655;42.590;23.364;2022-07-29T06:23:38;91813.69;;;20.12
71807;BMP280;59655;42.590;23.364;2022-07-29T06:26:04;91819.22;;;20.14
71807;BMP280;59655;42.590;23.364;2022-07-29T06:28:29;91824.84;;;20.18
71807;BMP280;59655;42.590;23.364;2022-07-29T06:30:55;91825.75;;;20.22
71807;BMP280;59655;42.590;23.364;2022-07-29T06:33:20;91823.84;;;20.25
71807;BMP280;59655;42.590;23.364;2022-07-29T06:35:46;91820.00;;;20.28
71807;BMP280;59655;42.590;23.364;2022-07-29T06:38:15;91822.91;;;20.32
71807;BMP280;59655;42.590;23.364;2022-07-29T06:40:43;91819.72;;;20.36
71807;BMP280;59655;42.590;23.364;2022-07-29T06:43:47;91826.50;;;20.37
71807;BMP280;59655;42.590;23.364;2022-07-29T06:46:15;91826.75;;;20.41
71807;BMP280;59655;42.590;23.364;2022-07-29T06:48:41;91814.75;;;20.44
71807;BMP280;59655;42.590;23.364;2022-07-29T06:51:08;91823.03;;;20.48
71807;BMP280;59655;42.590;23.364;2022-07-29T06:53:34;91819.16;;;20.51
71807;BMP280;59655;42.590;23.364;2022-07-29T06:56:01;91818.66;;;20.54
71807;BMP280;59655;42.590;23.364;2022-07-29T06:58:28;91820.19;;;20.58
71807;BMP280;59655;42.590;23.364;2022-07-29T07:00:53;91819.69;;;20.61
71807;BMP280;59655;42.590;23.364;2022-07-29T07:03:19;91818.50;;;20.64
71807;BMP280;59655;42.590;23.364;2022-07-29T07:05:45;91818.00;;;20.68
71807;BMP280;59655;42.590;23.364;2022-07-29T07:08:11;91814.13;;;20.71
71807;BMP280;59655;42.590;23.364;2022-07-29T07:10:36;91817.63;;;20.73
71807;BMP280;59655;42.590;23.364;2022-07-29T07:13:02;91816.41;;;20.76
71807;BMP280;59655;42.590;23.364;2022-07-29T07:15:28;91818.53;;;20.78
71807;BMP280;59655;42.590;23.364;2022-07-29T07:17:53;91813.91;;;20.81
71807;BMP280;59655;42.590;23.364;2022-07-29T07:20:19;91818.16;;;20.84
71807;BMP280;59655;42.590;23.364;2022-07-29T07:22:44;91814.22;;;20.87
71807;BMP280;59655;42.590;23.364;2022-07-29T07:25:10;91819.84;;;20.91
71807;BMP280;59655;42.590;23.364;2022-07-29T07:27:36;91820.63;;;20.93
71807;BMP280;59655;42.590;23.364;2022-07-29T07:30:04;91816.63;;;20.94
71807;BMP280;59655;42.590;23.364;2022-07-29T07:32:34;91817.44;;;20.97
71807;BMP280;59655;42.590;23.364;2022-07-29T07:34:59;91820.97;;;20.99
71807;BMP280;59655;42.590;23.364;2022-07-29T07:37:25;91819.56;;;20.98
71807;BMP280;59655;42.590;23.364;2022-07-29T07:39:51;91815.44;;;20.97
71807;BMP280;59655;42.590;23.364;2022-07-29T07:42:17;91812.16;;;20.99
71807;BMP280;59655;42.590;23.364;2022-07-29T07:44:43;91821.75;;;21.02
71807;BMP280;59655;42.590;23.364;2022-07-29T07:47:08;91817.66;;;21.01
71807;BMP280;59655;42.590;23.364;2022-07-29T07:49:34;91817.75;;;21.03
71807;BMP280;59655;42.590;23.364;2022-07-29T07:51:59;91815.25;;;21.07
71807;BMP280;59655;42.590;23.364;2022-07-29T07:54:24;91813.25;;;21.08
71807;BMP280;59655;42.590;23.364;2022-07-29T07:56:50;91810.75;;;21.12
71807;BMP280;59655;42.590;23.364;2022-07-29T07:59:16;91816.97;;;21.14
71807;BMP280;59655;42.590;23.364;2022-07-29T08:01:42;91808.38;;;21.18
71807;BMP280;59655;42.590;23.364;2022-07-29T08:04:08;91814.66;;;21.22
71807;BMP280;59655;42.590;23.364;2022-07-29T08:06:34;91822.75;;;21.22
71807;BMP280;59655;42.590;23.364;2022-07-29T08:09:02;91816.78;;;21.24
71807;BMP280;59655;42.590;23.364;2022-07-29T08:11:28;91826.88;;;21.23
71807;BMP280;59655;42.590;23.364;2022-07-29T08:13:54;91824.97;;;21.26
71807;BMP280;59655;42.590;23.364;2022-07-29T08:16:19;91823.06;;;21.29
71807;BMP280;59655;42.590;23.364;2022-07-29T08:18:45;91835.38;;;21.32
71807;BMP280;59655;42.590;23.364;2022-07-29T08:21:11;91826.69;;;21.33
71807;BMP280;59655;42.590;23.364;2022-07-29T08:23:37;91827.47;;;21.36
71807;BMP280;59655;42.590;23.364;2022-07-29T08:26:11;91824.19;;;21.37
71807;BMP280;59655;42.590;23.364;2022-07-29T08:28:38;91823.03;;;21.42
71807;BMP280;59655;42.590;23.364;2022-07-29T08:31:03;91817.84;;;21.46
71807;BMP280;59655;42.590;23.364;2022-07-29T08:33:29;91825.34;;;21.48
71807;BMP280;59655;42.590;23.364;2022-07-29T08:35:54;91826.75;;;21.49
71807;BMP280;59655;42.590;23.364;2022-07-29T08:38:19;91833.63;;;21.52
71807;BMP280;59655;42.590;23.364;2022-07-29T08:40:46;91820.94;;;21.55
71807;BMP280;59655;42.590;23.364;2022-07-29T08:43:11;91828.66;;;21.60
71807;BMP280;59655;42.590;23.364;2022-07-29T08:45:46;91828.84;;;21.64
71807;BMP280;59655;42.590;23.364;2022-07-29T08:48:12;91821.69;;;21.71
71807;BMP280;59655;42.590;23.364;2022-07-29T08:50:38;91820.53;;;21.74
71807;BMP280;59655;42.590;23.364;2022-07-29T08:53:04;91820.09;;;21.80
71807;BMP280;59655;42.590;23.364;2022-07-29T08:55:31;91824.47;;;21.87
71807;BMP280;59655;42.590;23.364;2022-07-29T08:57:57;91824.78;;;21.93
71807;BMP280;59655;42.590;23.364;2022-07-29T09:00:24;91821.56;;;21.96
71807;BMP280;59655;42.590;23.364;2022-07-29T09:02:56;91813.13;;;22.04
71807;BMP280;59655;42.590;23.364;2022-07-29T09:05:23;91814.09;;;22.11
71807;BMP280;59655;42.590;23.364;2022-07-29T09:07:49;91816.38;;;22.16
71807;BMP280;59655;42.590;23.364;2022-07-29T09:10:15;91822.75;;;22.23
71807;BMP280;59655;42.590;23.364;2022-07-29T09:12:41;91823.75;;;22.30
71807;BMP280;59655;42.590;23.364;2022-07-29T09:15:06;91826.00;;;22.35
71807;BMP280;59655;42.590;23.364;2022-07-29T09:22:39;91820.09;;;22.55
71807;BMP280;59655;42.590;23.364;2022-07-29T09:25:05;91821.09;;;22.61
71807;BMP280;59655;42.590;23.364;2022-07-29T09:27:31;91818.56;;;22.65
71807;BMP280;59655;42.590;23.364;2022-07-29T09:32:26;91820.47;;;22.79
71807;BMP280;59655;42.590;23.364;2022-07-29T09:35:18;91816.19;;;22.89
71807;BMP280;59655;42.590;23.364;2022-07-29T09:37:45;91820.47;;;22.94
71807;BMP280;59655;42.590;23.364;2022-07-29T09:40:16;91817.22;;;22.98
71807;BMP280;59655;42.590;23.364;2022-07-29T09:42:41;91823.00;;;23.06
71807;BMP280;59655;42.590;23.364;2022-07-29T09:45:07;91820.53;;;23.12
71807;BMP280;59655;42.590;23.364;2022-07-29T09:47:51;91819.22;;;23.29
71807;BMP280;59655;42.590;23.364;2022-07-29T09:50:16;91815.25;;;23.32
71807;BMP280;59655;42.590;23.364;2022-07-29T09:52:50;91812.53;;;23.32
71807;BMP280;59655;42.590;23.364;2022-07-29T09:55:16;91812.00;;;23.36
71807;BMP280;59655;42.590;23.364;2022-07-29T09:57:41;91808.06;;;23.39
71807;BMP280;59655;42.590;23.364;2022-07-29T10:00:11;91807.56;;;23.42
71807;BMP280;59655;42.590;23.364;2022-07-29T10:02:38;91801.56;;;23.46
71807;BMP280;59655;42.590;23.364;2022-07-29T10:05:06;91796.97;;;23.49
71807;BMP280;59655;42.590;23.364;2022-07-29T10:07:52;91788.97;;;23.53
71807;BMP280;59655;42.590;23.364;2022-07-29T10:10:20;91795.97;;;23.58
71807;BMP280;59655;42.590;23.364;2022-07-29T10:12:49;91790.06;;;23.63
71807;BMP280;59655;42.590;23.364;2022-07-29T10:15:15;91784.66;;;23.63
71807;BMP280;59655;42.590;23.364;2022-07-29T10:17:41;91785.97;;;23.62
71807;BMP280;59655;42.590;23.364;2022-07-29T10:20:08;91787.56;;;23.67
71807;BMP280;59655;42.590;23.364;2022-07-29T10:22:33;91788.38;;;23.72
71807;BMP280;59655;42.590;23.364;2022-07-29T10:24:59;91781.09;;;23.77
71807;BMP280;59655;42.590;23.364;2022-07-29T10:27:25;91780.09;;;23.86
71807;BMP280;59655;42.590;23.364;2022-07-29T10:29:50;91777.41;;;23.86
71807;BMP280;59655;42.590;23.364;2022-07-29T10:35:08;91777.69;;;23.94
71807;BMP280;59655;42.590;23.364;2022-07-29T10:40:45;91770.56;;;24.03
71807;BMP280;59655;42.590;23.364;2022-07-29T10:43:36;91774.72;;;24.06
71807;BMP280;59655;42.590;23.364;2022-07-29T10:46:03;91770.16;;;24.10
71807;BMP280;59655;42.590;23.364;2022-07-29T10:48:29;91761.56;;;24.16
71807;BMP280;59655;42.590;23.364;2022-07-29T10:51:00;91764.50;;;24.22
71807;BMP280;59655;42.590;23.364;2022-07-29T10:53:48;91753.56;;;24.20
71807;BMP280;59655;42.590;23.364;2022-07-29T10:56:34;91751.00;;;24.24
71807;BMP280;59655;42.590;23.364;2022-07-29T11:01:50;91754.16;;;24.36
71807;BMP280;59655;42.590;23.364;2022-07-29T11:04:37;91748.78;;;24.38
71807;BMP280;59655;42.590;23.364;2022-07-29T11:09:30;91750.34;;;24.43
71807;BMP280;59655;42.590;23.364;2022-07-29T11:11:58;91747.22;;;24.51
71807;BMP280;59655;42.590;23.364;2022-07-29T11:14:56;91742.44;;;24.52
71807;BMP280;59655;42.590;23.364;2022-07-29T11:17:22;91754.25;;;24.58
71807;BMP280;59655;42.590;23.364;2022-07-29T11:19:47;91755.69;;;24.61
71807;BMP280;59655;42.590;23.364;2022-07-29T11:22:32;91749.06;;;24.66
71807;BMP280;59655;42.590;23.364;2022-07-29T11:25:15;91753.25;;;24.69
71807;BMP280;59655;42.590;23.364;2022-07-29T11:27:41;91744.56;;;24.73
71807;BMP280;59655;42.590;23.364;2022-07-29T11:30:07;91746.78;;;24.79
71807;BMP280;59655;42.590;23.364;2022-07-29T11:32:42;91740.03;;;24.80
71807;BMP280;59655;42.590;23.364;2022-07-29T11:35:19;91736.97;;;24.89
71807;BMP280;59655;42.590;23.364;2022-07-29T11:46:41;91737.03;;;24.91
71807;BMP280;59655;42.590;23.364;2022-07-29T11:49:03;91737.16;;;24.95
71807;BMP280;59655;42.590;23.364;2022-07-29T11:51:29;91733.06;;;24.94
71807;BMP280;59655;42.590;23.364;2022-07-29T11:53:55;91728.88;;;24.91
71807;BMP280;59655;42.590;23.364;2022-07-29T11:56:21;91729.63;;;24.94
71807;BMP280;59655;42.590;23.364;2022-07-29T11:58:46;91730.97;;;24.93
71807;BMP280;59655;42.590;23.364;2022-07-29T12:01:18;91736.34;;;24.91
71807;BMP280;59655;42.590;23.364;2022-07-29T12:03:43;91726.91;;;24.94
71807;BMP280;59655;42.590;23.364;2022-07-29T12:06:13;91731.72;;;24.95
71807;BMP280;59655;42.590;23.364;2022-07-29T12:08:42;91737.78;;;24.94
71807;BMP280;59655;42.590;23.364;2022-07-29T12:11:16;91729.78;;;24.98
71807;BMP280;59655;42.590;23.364;2022-07-29T12:13:41;91730.53;;;25.01
71807;BMP280;59655;42.590;23.364;2022-07-29T12:16:07;91732.72;;;25.04
71807;BMP280;59655;42.590;23.364;2022-07-29T12:18:32;91733.50;;;25.09
71807;BMP280;59655;42.590;23.364;2022-07-29T12:20:59;91733.69;;;25.15
71807;BMP280;59655;42.590;23.364;2022-07-29T12:23:27;91735.09;;;25.16
71807;BMP280;59655;42.590;23.364;2022-07-29T12:25:52;91729.94;;;25.24
71807;BMP280;59655;42.590;23.364;2022-07-29T12:28:18;91726.84;;;25.34
71807;BMP280;59655;42.590;23.364;2022-07-29T12:30:46;91729.97;;;25.26
71807;BMP280;59655;42.590;23.364;2022-07-29T12:35:42;91729.28;;;25.26
71807;BMP280;59655;42.590;23.364;2022-07-29T12:38:10;91725.75;;;25.43
71807;BMP280;59655;42.590;23.364;2022-07-29T12:40:36;91727.41;;;25.52
71807;BMP280;59655;42.590;23.364;2022-07-29T12:43:12;91727.91;;;25.46
71807;BMP280;59655;42.590;23.364;2022-07-29T12:45:39;91727.78;;;25.42
71807;BMP280;59655;42.590;23.364;2022-07-29T12:48:05;91723.28;;;25.51
71807;BMP280;59655;42.590;23.364;2022-07-29T12:50:34;91725.38;;;25.53
71807;BMP280;59655;42.590;23.364;2022-07-29T12:53:11;91720.56;;;25.51
71807;BMP280;59655;42.590;23.364;2022-07-29T12:55:48;91731.78;;;25.85
71807;BMP280;59655;42.590;23.364;2022-07-29T12:58:45;91716.75;;;26.32
71807;BMP280;59655;42.590;23.364;2022-07-29T13:01:16;91719.06;;;26.16
71807;BMP280;59655;42.590;23.364;2022-07-29T13:03:58;91715.47;;;26.09
71807;BMP280;59655;42.590;23.364;2022-07-29T13:06:42;91720.66;;;26.01
71807;BMP280;59655;42.590;23.364;2022-07-29T13:09:14;91710.94;;;25.94
71807;BMP280;59655;42.590;23.364;2022-07-29T13:11:47;91711.59;;;25.92
71807;BMP280;59655;42.590;23.364;2022-07-29T13:14:35;91713.50;;;25.88
71807;BMP280;59655;42.590;23.364;2022-07-29T13:17:08;91710.16;;;25.89
71807;BMP280;59655;42.590;23.364;2022-07-29T13:19:41;91697.06;;;26.08
71807;BMP280;59655;42.590;23.364;2022-07-29T13:22:11;91696.97;;;26.56
71807;BMP280;59655;42.590;23.364;2022-07-29T13:24:47;91698.44;;;27.77
71807;BMP280;59655;42.590;23.364;2022-07-29T13:27:17;91704.06;;;28.58
71807;BMP280;59655;42.590;23.364;2022-07-29T13:29:43;91700.59;;;28.95
71807;BMP280;59655;42.590;23.364;2022-07-29T13:32:08;91701.31;;;29.42
71807;BMP280;59655;42.590;23.364;2022-07-29T13:34:33;91688.81;;;29.79
71807;BMP280;59655;42.590;23.364;2022-07-29T13:36:59;91691.94;;;30.14
71807;BMP280;59655;42.590;23.364;2022-07-29T13:39:24;91686.09;;;30.44
71807;BMP280;59655;42.590;23.364;2022-07-29T13:41:51;91702.75;;;30.66
71807;BMP280;59655;42.590;23.364;2022-07-29T13:44:16;91687.88;;;30.88
71807;BMP280;59655;42.590;23.364;2022-07-29T13:46:42;91683.13;;;30.99
71807;BMP280;59655;42.590;23.364;2022-07-29T13:49:07;91685.44;;;31.37
71807;BMP280;59655;42.590;23.364;2022-07-29T13:51:32;91683.50;;;31.56
71807;BMP280;59655;42.590;23.364;2022-07-29T13:53:58;91686.28;;;31.64
71807;BMP280;59655;42.590;23.364;2022-07-29T13:56:23;91684.31;;;31.89
71807;BMP280;59655;42.590;23.364;2022-07-29T13:58:48;91683.66;;;31.94
71807;BMP280;59655;42.590;23.364;2022-07-29T14:01:14;91685.75;;;32.04
71807;BMP280;59655;42.590;23.364;2022-07-29T14:03:39;91684.41;;;32.19
71807;BMP280;59655;42.590;23.364;2022-07-29T14:06:08;91683.75;;;32.29
71807;BMP280;59655;42.590;23.364;2022-07-29T14:08:33;91681.72;;;32.44
71807;BMP280;59655;42.590;23.364;2022-07-29T14:10:59;91681.72;;;32.52
71807;BMP280;59655;42.590;23.364;2022-07-29T14:13:24;91682.44;;;32.59
71807;BMP280;59655;42.590;23.364;2022-07-29T14:15:50;91675.56;;;32.72
71807;BMP280;59655;42.590;23.364;2022-07-29T14:18:15;91683.13;;;32.71
71807;BMP280;59655;42.590;23.364;2022-07-29T14:20:41;91690.69;;;32.85
71807;BMP280;59655;42.590;23.364;2022-07-29T14:23:06;91683.81;;;32.80
71807;BMP280;59655;42.590;23.364;2022-07-29T14:25:31;91679.69;;;32.87
71807;BMP280;59655;42.590;23.364;2022-07-29T14:27:57;91680.38;;;32.94
71807;BMP280;59655;42.590;23.364;2022-07-29T14:30:22;91682.41;;;33.03
71807;BMP280;59655;42.590;23.364;2022-07-29T14:32:47;91679.69;;;32.99
71807;BMP280;59655;42.590;23.364;2022-07-29T14:35:13;91673.50;;;33.01
71807;BMP280;59655;42.590;23.364;2022-07-29T14:37:38;91673.47;;;32.25